sensor_id;sensor_type;location;lat;lon;timestamp;temperature;humidity
8220;DHT22;4151;51.110;7.020;2023-05-10T00:00:50;12.60;99.90
8220;DHT22;4151;51.110;7.020;2023-05-10T00:03:16;12.70;99.90
8220;DHT22;4151;51.110;7.020;2023-05-10T00:05:42;12.70;99.90
8220;DHT22;4151;51.110;7.020;2023-05-10T00:08:08;12.60;99.90
8220;DHT22;4151;51.110;7.020;2023-05-10T00:10:33;12.60;99.90
8220;DHT22;4151;51.110;7.020;2023-05-10T00:12:59;12.60;99.90
8220;DHT22;4151;51.110;7.020;2023-05-10T00:15:25;12.60;99.90
8220;DHT22;4151;51.110;7.020;2023-05-10T00:17:50;12.60;99.90
8220;DHT22;4151;51.110;7.020;2023-05-10T00:20:16;12.70;99.90
8220;DHT22;4151;51.110;7.020;2023-05-10T00:22:42;12.70;99.90
8220;DHT22;4151;51.110;7.020;2023-05-10T00:25:08;12.70;99.90
8220;DHT22;4151;51.110;7.020;2023-05-10T00:27:33;12.70;99.90
8220;DHT22;4151;51.110;7.020;2023-05-10T00:29:59;12.70;99.90
8220;DHT22;4151;51.110;7.020;2023-05-10T00:32:24;12.70;99.90
8220;DHT22;4151;51.110;7.020;2023-05-10T00:34:50;12.70;99.90
8220;DHT22;4151;51.110;7.020;2023-05-10T00:37:16;12.70;99.90
8220;DHT22;4151;51.110;7.020;2023-05-10T00:39:41;12.70;99.90
8220;DHT22;4151;51.110;7.020;2023-05-10T00:42:07;12.70;99.90
8220;DHT22;4151;51.110;7.020;2023-05-10T00:44:32;12.70;99.90
8220;DHT22;4151;51.110;7.020;2023-05-10T00:46:58;12.70;99.90
8220;DHT22;4151;51.110;7.020;2023-05-10T00:49:24;12.70;99.90
8220;DHT22;4151;51.110;7.020;2023-05-10T00:51:50;12.70;99.90
8220;DHT22;4151;51.110;7.020;2023-05-10T00:54:16;12.70;99.90
8220;DHT22;4151;51.110;7.020;2023-05-10T00:56:42;12.70;99.90
8220;DHT22;4151;51.110;7.020;2023-05-10T00:59:14;12.70;99.90
8220;DHT22;4151;51.110;7.020;2023-05-10T01:01:40;12.70;99.90
8220;DHT22;4151;51.110;7.020;2023-05-10T01:04:05;12.70;99.90
8220;DHT22;4151;51.110;7.020;2023-05-10T01:06:31;12.70;99.90
8220;DHT22;4151;51.110;7.020;2023-05-10T01:08:57;12.70;99.90
8220;DHT22;4151;51.110;7.020;2023-05-10T01:11:23;12.70;99.90
8220;DHT22;4151;51.110;7.020;2023-05-10T01:13:55;12.70;99.90
8220;DHT22;4151;51.110;7.020;2023-05-10T01:16:22;12.70;99.90
8220;DHT22;4151;51.110;7.020;2023-05-10T01:18:48;12.70;99.90
8220;DHT22;4151;51.110;7.020;2023-05-10T01:21:33;12.70;99.90
8220;DHT22;4151;51.110;7.020;2023-05-10T01:24:23;12.70;99.90
8220;DHT22;4151;51.110;7.020;2023-05-10T01:32:29;12.70;99.90
8220;DHT22;4151;51.110;7.020;2023-05-10T01:41:05;12.70;99.90
8220;DHT22;4151;51.110;7.020;2023-05-10T01:43:48;12.70;99.90
8220;DHT22;4151;51.110;7.020;2023-05-10T01:46:24;12.70;99.90
8220;DHT22;4151;51.110;7.020;2023-05-10T01:48:55;12.70;99.90
8220;DHT22;4151;51.110;7.020;2023-05-10T01:51:23;12.60;99.90
8220;DHT22;4151;51.110;7.020;2023-05-10T01:53:53;12.60;99.90
8220;DHT22;4151;51.110;7.020;2023-05-10T01:56:19;12.60;99.90
8220;DHT22;4151;51.110;7.020;2023-05-10T01:58:49;12.60;99.90
8220;DHT22;4151;51.110;7.020;2023-05-10T02:01:19;12.60;99.90
8220;DHT22;4151;51.110;7.020;2023-05-10T02:03:46;12.50;99.90
8220;DHT22;4151;51.110;7.020;2023-05-10T02:06:14;12.50;99.90
8220;DHT22;4151;51.110;7.020;2023-05-10T02:08:41;12.50;99.90
8220;DHT22;4151;51.110;7.020;2023-05-10T02:11:07;12.40;99.90
8220;DHT22;4151;51.110;7.020;2023-05-10T02:13:34;12.30;99.90
8220;DHT22;4151;51.110;7.020;2023-05-10T02:16:01;12.30;99.90
8220;DHT22;4151;51.110;7.020;2023-05-10T02:18:29;12.30;99.90
8220;DHT22;4151;51.110;7.020;2023-05-10T02:20:55;12.30;99.90
8220;DHT22;4151;51.110;7.020;2023-05-10T02:23:22;12.30;99.90
8220;DHT22;4151;51.110;7.020;2023-05-10T02:25:48;12.30;99.90
8220;DHT22;4151;51.110;7.020;2023-05-10T02:28:15;12.30;99.90
8220;DHT22;4151;51.110;7.020;2023-05-10T02:30:41;12.30;99.90
8220;DHT22;4151;51.110;7.020;2023-05-10T02:33:08;12.30;99.90
8220;DHT22;4151;51.110;7.020;2023-05-10T02:35:35;12.30;99.90
8220;DHT22;4151;51.110;7.020;2023-05-10T02:38:01;12.30;99.90
8220;DHT22;4151;51.110;7.020;2023-05-10T02:40:28;12.20;99.90
8220;DHT22;4151;51.110;7.020;2023-05-10T02:42:55;12.30;99.90
8220;DHT22;4151;51.110;7.020;2023-05-10T02:45:24;12.30;99.90
8220;DHT22;4151;51.110;7.020;2023-05-10T02:47:52;12.20;99.90
8220;DHT22;4151;51.110;7.020;2023-05-10T02:50:18;12.30;99.90
8220;DHT22;4151;51.110;7.020;2023-05-10T02:52:49;12.30;99.90
8220;DHT22;4151;51.110;7.020;2023-05-10T02:55:20;12.30;99.90
8220;DHT22;4151;51.110;7.020;2023-05-10T02:57:51;12.40;99.90
8220;DHT22;4151;51.110;7.020;2023-05-10T03:00:17;12.50;99.90
8220;DHT22;4151;51.110;7.020;2023-05-10T03:02:43;12.50;99.90
8220;DHT22;4151;51.110;7.020;2023-05-10T03:05:09;12.40;99.90
8220;DHT22;4151;51.110;7.020;2023-05-10T03:07:34;12.50;99.90
8220;DHT22;4151;51.110;7.020;2023-05-10T03:10:01;12.50;99.90
8220;DHT22;4151;51.110;7.020;2023-05-10T03:12:33;12.60;99.90
8220;DHT22;4151;51.110;7.020;2023-05-10T03:18:07;12.60;99.90
8220;DHT22;4151;51.110;7.020;2023-05-10T03:20:48;12.40;99.90
8220;DHT22;4151;51.110;7.020;2023-05-10T03:23:43;12.40;99.90
8220;DHT22;4151;51.110;7.020;2023-05-10T03:26:09;12.40;99.90
8220;DHT22;4151;51.110;7.020;2023-05-10T03:28:37;12.40;99.90
8220;DHT22;4151;51.110;7.020;2023-05-10T03:31:04;12.40;99.90
8220;DHT22;4151;51.110;7.020;2023-05-10T03:33:31;12.40;99.90
8220;DHT22;4151;51.110;7.020;2023-05-10T03:35:57;12.40;99.90
8220;DHT22;4151;51.110;7.020;2023-05-10T03:38:23;12.40;99.90
8220;DHT22;4151;51.110;7.020;2023-05-10T03:40:49;12.40;99.90
8220;DHT22;4151;51.110;7.020;2023-05-10T03:43:14;12.40;99.90
8220;DHT22;4151;51.110;7.020;2023-05-10T03:45:40;12.40;99.90
8220;DHT22;4151;51.110;7.020;2023-05-10T03:48:05;12.40;99.90
8220;DHT22;4151;51.110;7.020;2023-05-10T03:50:31;12.50;99.90
8220;DHT22;4151;51.110;7.020;2023-05-10T03:52:56;12.50;99.90
8220;DHT22;4151;51.110;7.020;2023-05-10T03:55:23;12.50;99.90
8220;DHT22;4151;51.110;7.020;2023-05-10T03:57:48;12.50;99.90
8220;DHT22;4151;51.110;7.020;2023-05-10T04:00:15;12.50;99.90
8220;DHT22;4151;51.110;7.020;2023-05-10T04:02:40;12.50;99.90
8220;DHT22;4151;51.110;7.020;2023-05-10T04:05:06;12.50;99.90
8220;DHT22;4151;51.110;7.020;2023-05-10T04:07:32;12.50;99.90
8220;DHT22;4151;51.110;7.020;2023-05-10T04:09:57;12.50;99.90
8220;DHT22;4151;51.110;7.020;2023-05-10T04:12:23;12.50;99.90
8220;DHT22;4151;51.110;7.020;2023-05-10T04:14:49;12.50;99.90
8220;DHT22;4151;51.110;7.020;2023-05-10T04:17:14;12.60;99.90
8220;DHT22;4151;51.110;7.020;2023-05-10T04:19:40;12.60;99.90
8220;DHT22;4151;51.110;7.020;2023-05-10T04:22:05;12.60;99.90
8220;DHT22;4151;51.110;7.020;2023-05-10T04:24:31;12.60;99.90
8220;DHT22;4151;51.110;7.020;2023-05-10T04:26:56;12.60;99.90
8220;DHT22;4151;51.110;7.020;2023-05-10T04:29:22;12.60;99.90
8220;DHT22;4151;51.110;7.020;2023-05-10T04:31:48;12.60;99.90
8220;DHT22;4151;51.110;7.020;2023-05-10T04:34:14;12.60;99.90
8220;DHT22;4151;51.110;7.020;2023-05-10T04:36:39;12.60;99.90
8220;DHT22;4151;51.110;7.020;2023-05-10T04:39:05;12.70;99.90
8220;DHT22;4151;51.110;7.020;2023-05-10T04:41:30;12.70;99.90
8220;DHT22;4151;51.110;7.020;2023-05-10T04:43:56;12.70;99.90
8220;DHT22;4151;51.110;7.020;2023-05-10T04:46:22;12.70;99.90
8220;DHT22;4151;51.110;7.020;2023-05-10T04:48:47;12.70;99.90
8220;DHT22;4151;51.110;7.020;2023-05-10T04:51:13;12.70;99.90
8220;DHT22;4151;51.110;7.020;2023-05-10T05:04:06;12.70;99.90
8220;DHT22;4151;51.110;7.020;2023-05-10T05:06:32;12.90;99.90
8220;DHT22;4151;51.110;7.020;2023-05-10T05:08:57;12.90;99.90
8220;DHT22;4151;51.110;7.020;2023-05-10T05:11:23;12.90;99.90
8220;DHT22;4151;51.110;7.020;2023-05-10T05:13:48;12.90;99.90
8220;DHT22;4151;51.110;7.020;2023-05-10T05:16:14;12.80;99.90
8220;DHT22;4151;51.110;7.020;2023-05-10T05:18:40;12.80;99.90
8220;DHT22;4151;51.110;7.020;2023-05-10T05:21:19;12.90;99.90
8220;DHT22;4151;51.110;7.020;2023-05-10T05:23:45;12.80;99.90
8220;DHT22;4151;51.110;7.020;2023-05-10T05:26:10;12.90;99.90
8220;DHT22;4151;51.110;7.020;2023-05-10T05:28:36;12.90;99.90
8220;DHT22;4151;51.110;7.020;2023-05-10T05:31:05;12.90;99.90
8220;DHT22;4151;51.110;7.020;2023-05-10T05:33:31;12.90;99.90
8220;DHT22;4151;51.110;7.020;2023-05-10T05:35:56;12.90;99.90
8220;DHT22;4151;51.110;7.020;2023-05-10T05:38:22;13.00;99.90
8220;DHT22;4151;51.110;7.020;2023-05-10T05:40:47;13.10;99.90
8220;DHT22;4151;51.110;7.020;2023-05-10T05:43:13;13.10;99.90
8220;DHT22;4151;51.110;7.020;2023-05-10T05:45:38;13.20;99.90
8220;DHT22;4151;51.110;7.020;2023-05-10T05:48:04;13.10;99.90
8220;DHT22;4151;51.110;7.020;2023-05-10T05:50:30;13.20;99.90
8220;DHT22;4151;51.110;7.020;2023-05-10T05:52:56;13.20;99.90
8220;DHT22;4151;51.110;7.020;2023-05-10T05:55:22;13.30;99.90
8220;DHT22;4151;51.110;7.020;2023-05-10T05:57:49;13.20;99.90
8220;DHT22;4151;51.110;7.020;2023-05-10T06:00:15;13.20;99.90
8220;DHT22;4151;51.110;7.020;2023-05-10T06:02:40;13.20;99.90
8220;DHT22;4151;51.110;7.020;2023-05-10T06:05:06;13.10;99.90
8220;DHT22;4151;51.110;7.020;2023-05-10T06:07:32;13.10;99.90
8220;DHT22;4151;51.110;7.020;2023-05-10T06:09:58;13.10;99.90
8220;DHT22;4151;51.110;7.020;2023-05-10T06:12:23;13.10;99.90
8220;DHT22;4151;51.110;7.020;2023-05-10T06:14:49;13.20;99.90
8220;DHT22;4151;51.110;7.020;2023-05-10T06:17:14;13.10;99.90
8220;DHT22;4151;51.110;7.020;2023-05-10T06:19:40;13.10;99.90
8220;DHT22;4151;51.110;7.020;2023-05-10T06:22:05;13.10;99.90
8220;DHT22;4151;51.110;7.020;2023-05-10T06:24:31;12.90;99.90
8220;DHT22;4151;51.110;7.020;2023-05-10T06:26:56;13.00;99.90
8220;DHT22;4151;51.110;7.020;2023-05-10T06:29:25;13.10;99.90
8220;DHT22;4151;51.110;7.020;2023-05-10T06:31:51;13.00;99.90
8220;DHT22;4151;51.110;7.020;2023-05-10T06:34:16;13.10;99.90
8220;DHT22;4151;51.110;7.020;2023-05-10T06:36:42;13.10;99.90
8220;DHT22;4151;51.110;7.020;2023-05-10T06:39:07;13.10;99.90
8220;DHT22;4151;51.110;7.020;2023-05-10T06:41:33;13.10;99.90
8220;DHT22;4151;51.110;7.020;2023-05-10T06:43:58;13.10;99.90
8220;DHT22;4151;51.110;7.020;2023-05-10T06:46:24;13.00;99.90
8220;DHT22;4151;51.110;7.020;2023-05-10T06:48:49;13.00;99.90
8220;DHT22;4151;51.110;7.020;2023-05-10T06:51:15;13.10;99.90
8220;DHT22;4151;51.110;7.020;2023-05-10T06:53:40;13.10;99.90
8220;DHT22;4151;51.110;7.020;2023-05-10T06:56:06;13.10;99.90
8220;DHT22;4151;51.110;7.020;2023-05-10T06:58:32;13.10;99.90
8220;DHT22;4151;51.110;7.020;2023-05-10T07:01:04;13.10;99.90
8220;DHT22;4151;51.110;7.020;2023-05-10T07:03:30;13.10;99.90
8220;DHT22;4151;51.110;7.020;2023-05-10T07:06:03;13.00;99.90
8220;DHT22;4151;51.110;7.020;2023-05-10T07:08:33;13.00;99.90
8220;DHT22;4151;51.110;7.020;2023-05-10T07:11:06;13.00;99.90
8220;DHT22;4151;51.110;7.020;2023-05-10T07:13:35;13.00;99.90
8220;DHT22;4151;51.110;7.020;2023-05-10T07:16:01;13.00;99.90
8220;DHT22;4151;51.110;7.020;2023-05-10T07:18:28;12.90;99.90
8220;DHT22;4151;51.110;7.020;2023-05-10T07:20:54;12.80;99.90
8220;DHT22;4151;51.110;7.020;2023-05-10T07:23:19;12.80;99.90
8220;DHT22;4151;51.110;7.020;2023-05-10T07:25:47;12.80;99.90
8220;DHT22;4151;51.110;7.020;2023-05-10T07:28:15;12.80;99.90
8220;DHT22;4151;51.110;7.020;2023-05-10T07:30:42;12.90;99.90
8220;DHT22;4151;51.110;7.020;2023-05-10T07:33:08;13.00;99.90
8220;DHT22;4151;51.110;7.020;2023-05-10T07:35:35;13.00;99.90
8220;DHT22;4151;51.110;7.020;2023-05-10T07:38:01;13.10;99.90
8220;DHT22;4151;51.110;7.020;2023-05-10T07:40:27;13.10;99.90
8220;DHT22;4151;51.110;7.020;2023-05-10T07:42:53;13.30;99.90
8220;DHT22;4151;51.110;7.020;2023-05-10T07:45:18;13.50;99.90
8220;DHT22;4151;51.110;7.020;2023-05-10T07:47:44;13.50;99.90
8220;DHT22;4151;51.110;7.020;2023-05-10T07:50:09;13.50;99.90
8220;DHT22;4151;51.110;7.020;2023-05-10T07:52:35;13.50;99.90
8220;DHT22;4151;51.110;7.020;2023-05-10T07:55:01;13.50;99.90
8220;DHT22;4151;51.110;7.020;2023-05-10T07:57:26;13.70;99.90
8220;DHT22;4151;51.110;7.020;2023-05-10T07:59:52;13.80;99.90
8220;DHT22;4151;51.110;7.020;2023-05-10T08:02:17;13.80;99.90
8220;DHT22;4151;51.110;7.020;2023-05-10T08:04:43;14.00;99.90
8220;DHT22;4151;51.110;7.020;2023-05-10T08:07:08;14.10;99.90
8220;DHT22;4151;51.110;7.020;2023-05-10T08:09:34;14.10;99.90
8220;DHT22;4151;51.110;7.020;2023-05-10T08:11:59;14.30;99.90
8220;DHT22;4151;51.110;7.020;2023-05-10T08:14:27;14.40;99.90
8220;DHT22;4151;51.110;7.020;2023-05-10T08:16:52;14.40;99.90
8220;DHT22;4151;51.110;7.020;2023-05-10T08:19:18;14.40;99.90
8220;DHT22;4151;51.110;7.020;2023-05-10T08:21:47;14.50;99.90
8220;DHT22;4151;51.110;7.020;2023-05-10T08:24:13;14.60;99.90
8220;DHT22;4151;51.110;7.020;2023-05-10T08:26:38;14.70;99.90
8220;DHT22;4151;51.110;7.020;2023-05-10T08:29:04;14.60;99.90
8220;DHT22;4151;51.110;7.020;2023-05-10T08:31:29;14.40;99.90
8220;DHT22;4151;51.110;7.020;2023-05-10T08:33:55;14.60;99.90
8220;DHT22;4151;51.110;7.020;2023-05-10T08:36:20;14.70;99.90
8220;DHT22;4151;51.110;7.020;2023-05-10T08:38:53;14.70;99.90
8220;DHT22;4151;51.110;7.020;2023-05-10T08:41:23;14.60;99.90
8220;DHT22;4151;51.110;7.020;2023-05-10T08:43:50;14.60;99.90
8220;DHT22;4151;51.110;7.020;2023-05-10T08:46:18;14.70;99.90
8220;DHT22;4151;51.110;7.020;2023-05-10T08:48:48;14.70;99.90
8220;DHT22;4151;51.110;7.020;2023-05-10T08:51:15;14.60;99.90
8220;DHT22;4151;51.110;7.020;2023-05-10T08:53:43;14.30;99.90
8220;DHT22;4151;51.110;7.020;2023-05-10T08:56:09;14.10;99.90
8220;DHT22;4151;51.110;7.020;2023-05-10T08:58:35;14.10;99.90
8220;DHT22;4151;51.110;7.020;2023-05-10T09:01:02;14.10;99.90
8220;DHT22;4151;51.110;7.020;2023-05-10T09:03:28;14.10;99.90
8220;DHT22;4151;51.110;7.020;2023-05-10T09:05:54;14.10;99.90
8220;DHT22;4151;51.110;7.020;2023-05-10T09:08:22;14.20;99.90
8220;DHT22;4151;51.110;7.020;2023-05-10T09:10:50;14.50;99.90
8220;DHT22;4151;51.110;7.020;2023-05-10T09:13:17;14.70;99.90
8220;DHT22;4151;51.110;7.020;2023-05-10T09:15:44;14.80;99.90
8220;DHT22;4151;51.110;7.020;2023-05-10T09:18:10;15.00;99.90
8220;DHT22;4151;51.110;7.020;2023-05-10T09:20:35;15.10;99.90
8220;DHT22;4151;51.110;7.020;2023-05-10T09:23:01;15.30;99.90
8220;DHT22;4151;51.110;7.020;2023-05-10T09:25:26;15.60;99.90
8220;DHT22;4151;51.110;7.020;2023-05-10T09:27:52;15.70;99.90
8220;DHT22;4151;51.110;7.020;2023-05-10T09:30:24;15.80;99.90
8220;DHT22;4151;51.110;7.020;2023-05-10T09:32:51;15.60;99.90
8220;DHT22;4151;51.110;7.020;2023-05-10T09:35:18;15.40;99.90
8220;DHT22;4151;51.110;7.020;2023-05-10T09:37:46;15.20;99.90
8220;DHT22;4151;51.110;7.020;2023-05-10T09:40:26;15.20;99.90
8220;DHT22;4151;51.110;7.020;2023-05-10T09:45:17;15.50;99.90
8220;DHT22;4151;51.110;7.020;2023-05-10T09:47:42;15.50;99.90
8220;DHT22;4151;51.110;7.020;2023-05-10T09:50:09;15.40;99.90
8220;DHT22;4151;51.110;7.020;2023-05-10T09:53:00;15.20;99.90
8220;DHT22;4151;51.110;7.020;2023-05-10T09:55:41;14.80;99.90
8220;DHT22;4151;51.110;7.020;2023-05-10T09:58:08;14.30;99.90
8220;DHT22;4151;51.110;7.020;2023-05-10T10:00:40;14.00;99.90
8220;DHT22;4151;51.110;7.020;2023-05-10T10:03:06;13.90;99.90
8220;DHT22;4151;51.110;7.020;2023-05-10T10:05:34;13.80;99.90
8220;DHT22;4151;51.110;7.020;2023-05-10T10:08:02;13.70;99.90
8220;DHT22;4151;51.110;7.020;2023-05-10T10:10:29;13.50;99.90
8220;DHT22;4151;51.110;7.020;2023-05-10T10:12:56;13.40;99.90
8220;DHT22;4151;51.110;7.020;2023-05-10T10:15:22;13.30;99.90
8220;DHT22;4151;51.110;7.020;2023-05-10T10:17:48;13.20;99.90
8220;DHT22;4151;51.110;7.020;2023-05-10T10:20:15;13.30;99.90
8220;DHT22;4151;51.110;7.020;2023-05-10T10:22:41;13.40;99.90
8220;DHT22;4151;51.110;7.020;2023-05-10T10:25:10;13.50;99.90
8220;DHT22;4151;51.110;7.020;2023-05-10T10:27:57;13.70;99.90
8220;DHT22;4151;51.110;7.020;2023-05-10T10:30:40;13.90;99.90
8220;DHT22;4151;51.110;7.020;2023-05-10T10:33:28;14.00;99.90
8220;DHT22;4151;51.110;7.020;2023-05-10T10:36:00;13.90;99.90
8220;DHT22;4151;51.110;7.020;2023-05-10T10:38:56;13.80;99.90
8220;DHT22;4151;51.110;7.020;2023-05-10T10:41:35;14.00;99.90
8220;DHT22;4151;51.110;7.020;2023-05-10T10:50:04;14.60;99.90
8220;DHT22;4151;51.110;7.020;2023-05-10T10:52:34;14.70;99.90
8220;DHT22;4151;51.110;7.020;2023-05-10T10:57:45;14.50;99.90
8220;DHT22;4151;51.110;7.020;2023-05-10T11:00:37;14.60;99.90
8220;DHT22;4151;51.110;7.020;2023-05-10T11:05:48;14.80;99.90
8220;DHT22;4151;51.110;7.020;2023-05-10T11:08:28;15.20;99.90
8220;DHT22;4151;51.110;7.020;2023-05-10T11:13:29;15.50;99.90
8220;DHT22;4151;51.110;7.020;2023-05-10T11:15:56;16.00;99.90
8220;DHT22;4151;51.110;7.020;2023-05-10T11:18:25;16.00;99.90
8220;DHT22;4151;51.110;7.020;2023-05-10T11:21:00;15.70;99.90
8220;DHT22;4151;51.110;7.020;2023-05-10T11:23:31;15.60;99.90
8220;DHT22;4151;51.110;7.020;2023-05-10T11:25:58;15.40;99.90
8220;DHT22;4151;51.110;7.020;2023-05-10T11:28:24;15.40;99.90
8220;DHT22;4151;51.110;7.020;2023-05-10T11:30:51;15.20;99.90
8220;DHT22;4151;51.110;7.020;2023-05-10T11:33:17;15.20;99.90
8220;DHT22;4151;51.110;7.020;2023-05-10T11:35:44;15.60;99.90
8220;DHT22;4151;51.110;7.020;2023-05-10T11:38:12;15.80;99.90
8220;DHT22;4151;51.110;7.020;2023-05-10T11:40:38;16.20;99.90
8220;DHT22;4151;51.110;7.020;2023-05-10T11:43:04;16.50;99.90
8220;DHT22;4151;51.110;7.020;2023-05-10T11:45:34;16.70;99.90
8220;DHT22;4151;51.110;7.020;2023-05-10T11:48:00;16.60;99.90
8220;DHT22;4151;51.110;7.020;2023-05-10T11:50:26;16.20;99.90
8220;DHT22;4151;51.110;7.020;2023-05-10T11:52:52;16.10;99.90
8220;DHT22;4151;51.110;7.020;2023-05-10T11:55:18;15.90;99.90
8220;DHT22;4151;51.110;7.020;2023-05-10T11:57:44;15.80;99.90
8220;DHT22;4151;51.110;7.020;2023-05-10T12:00:12;15.70;99.90
8220;DHT22;4151;51.110;7.020;2023-05-10T12:02:38;15.80;99.90
8220;DHT22;4151;51.110;7.020;2023-05-10T12:05:04;15.90;99.90
8220;DHT22;4151;51.110;7.020;2023-05-10T12:07:31;15.70;99.90
8220;DHT22;4151;51.110;7.020;2023-05-10T12:10:10;15.70;99.90
8220;DHT22;4151;51.110;7.020;2023-05-10T12:12:44;15.60;99.90
8220;DHT22;4151;51.110;7.020;2023-05-10T12:15:21;15.50;99.90
8220;DHT22;4151;51.110;7.020;2023-05-10T12:17:47;15.40;99.90
8220;DHT22;4151;51.110;7.020;2023-05-10T12:20:21;15.40;99.90
8220;DHT22;4151;51.110;7.020;2023-05-10T12:22:50;15.10;99.90
8220;DHT22;4151;51.110;7.020;2023-05-10T12:25:18;15.10;99.90
8220;DHT22;4151;51.110;7.020;2023-05-10T12:27:53;15.30;99.90
8220;DHT22;4151;51.110;7.020;2023-05-10T12:30:22;15.30;99.90
8220;DHT22;4151;51.110;7.020;2023-05-10T12:32:48;15.30;99.90
8220;DHT22;4151;51.110;7.020;2023-05-10T12:35:14;15.10;99.90
8220;DHT22;4151;51.110;7.020;2023-05-10T12:37:40;15.10;99.90
8220;DHT22;4151;51.110;7.020;2023-05-10T12:40:08;15.40;99.90
8220;DHT22;4151;51.110;7.020;2023-05-10T12:42:35;15.60;99.90
8220;DHT22;4151;51.110;7.020;2023-05-10T12:45:01;15.90;99.90
8220;DHT22;4151;51.110;7.020;2023-05-10T12:47:28;16.40;99.90
8220;DHT22;4151;51.110;7.020;2023-05-10T12:49:53;16.70;99.90
8220;DHT22;4151;51.110;7.020;2023-05-10T12:52:19;17.10;99.90
8220;DHT22;4151;51.110;7.020;2023-05-10T12:54:45;17.70;99.90
8220;DHT22;4151;51.110;7.020;2023-05-10T12:57:10;18.30;99.90
8220;DHT22;4151;51.110;7.020;2023-05-10T12:59:36;18.90;99.90
8220;DHT22;4151;51.110;7.020;2023-05-10T13:02:01;19.40;99.90
8220;DHT22;4151;51.110;7.020;2023-05-10T13:04:27;19.60;99.90
8220;DHT22;4151;51.110;7.020;2023-05-10T13:06:53;19.60;99.90
8220;DHT22;4151;51.110;7.020;2023-05-10T13:09:20;19.40;99.90
8220;DHT22;4151;51.110;7.020;2023-05-10T13:11:46;19.00;99.90
8220;DHT22;4151;51.110;7.020;2023-05-10T13:14:13;18.40;99.90
8220;DHT22;4151;51.110;7.020;2023-05-10T13:16:39;18.00;99.90
8220;DHT22;4151;51.110;7.020;2023-05-10T13:19:05;17.60;99.90
8220;DHT22;4151;51.110;7.020;2023-05-10T13:21:30;17.30;99.90
8220;DHT22;4151;51.110;7.020;2023-05-10T13:23:56;17.20;99.90
8220;DHT22;4151;51.110;7.020;2023-05-10T13:26:21;17.10;99.90
8220;DHT22;4151;51.110;7.020;2023-05-10T13:28:47;17.10;99.90
8220;DHT22;4151;51.110;7.020;2023-05-10T13:31:14;16.70;99.90
8220;DHT22;4151;51.110;7.020;2023-05-10T13:33:39;16.50;99.90
8220;DHT22;4151;51.110;7.020;2023-05-10T13:36:06;16.20;99.90
8220;DHT22;4151;51.110;7.020;2023-05-10T13:38:32;16.20;99.90
8220;DHT22;4151;51.110;7.020;2023-05-10T13:40:57;16.20;99.90
8220;DHT22;4151;51.110;7.020;2023-05-10T13:43:23;16.10;99.90
8220;DHT22;4151;51.110;7.020;2023-05-10T13:45:49;16.10;99.90
8220;DHT22;4151;51.110;7.020;2023-05-10T13:48:15;16.10;99.90
8220;DHT22;4151;51.110;7.020;2023-05-10T13:50:41;16.20;99.90
8220;DHT22;4151;51.110;7.020;2023-05-10T13:53:07;16.30;99.90
8220;DHT22;4151;51.110;7.020;2023-05-10T13:55:32;16.60;99.90
8220;DHT22;4151;51.110;7.020;2023-05-10T13:57:58;16.70;99.90
8220;DHT22;4151;51.110;7.020;2023-05-10T14:00:24;17.00;99.90
8220;DHT22;4151;51.110;7.020;2023-05-10T14:02:50;17.30;99.90
8220;DHT22;4151;51.110;7.020;2023-05-10T14:05:15;17.40;99.90
8220;DHT22;4151;51.110;7.020;2023-05-10T14:07:41;17.50;99.90
8220;DHT22;4151;51.110;7.020;2023-05-10T14:10:07;17.50;99.90
8220;DHT22;4151;51.110;7.020;2023-05-10T14:12:32;17.90;99.90
8220;DHT22;4151;51.110;7.020;2023-05-10T14:14:58;18.30;99.90
8220;DHT22;4151;51.110;7.020;2023-05-10T14:17:23;19.00;99.90
8220;DHT22;4151;51.110;7.020;2023-05-10T14:19:49;20.40;99.90
8220;DHT22;4151;51.110;7.020;2023-05-10T14:22:14;23.20;99.90
8220;DHT22;4151;51.110;7.020;2023-05-10T14:24:40;24.80;99.90
8220;DHT22;4151;51.110;7.020;2023-05-10T14:27:06;25.50;99.90
8220;DHT22;4151;51.110;7.020;2023-05-10T14:29:32;26.30;99.90
8220;DHT22;4151;51.110;7.020;2023-05-10T14:31:58;25.50;99.90
8220;DHT22;4151;51.110;7.020;2023-05-10T14:34:23;24.10;99.90
8220;DHT22;4151;51.110;7.020;2023-05-10T14:36:49;22.40;99.90
8220;DHT22;4151;51.110;7.020;2023-05-10T14:39:15;21.20;99.90
8220;DHT22;4151;51.110;7.020;2023-05-10T14:41:40;19.60;99.90
8220;DHT22;4151;51.110;7.020;2023-05-10T14:44:08;18.60;99.90
8220;DHT22;4151;51.110;7.020;2023-05-10T14:46:33;18.00;99.90
8220;DHT22;4151;51.110;7.020;2023-05-10T14:48:59;17.90;99.90
8220;DHT22;4151;51.110;7.020;2023-05-10T14:51:25;17.60;99.90
8220;DHT22;4151;51.110;7.020;2023-05-10T14:53:50;17.50;99.90
8220;DHT22;4151;51.110;7.020;2023-05-10T14:56:16;17.40;99.90
8220;DHT22;4151;51.110;7.020;2023-05-10T14:58:41;17.40;99.90
8220;DHT22;4151;51.110;7.020;2023-05-10T15:01:07;17.20;99.90
8220;DHT22;4151;51.110;7.020;2023-05-10T15:03:32;16.90;99.90
8220;DHT22;4151;51.110;7.020;2023-05-10T15:05:58;16.70;99.90
8220;DHT22;4151;51.110;7.020;2023-05-10T15:08:24;16.60;99.90
8220;DHT22;4151;51.110;7.020;2023-05-10T15:10:53;16.60;99.90
8220;DHT22;4151;51.110;7.020;2023-05-10T15:13:20;16.70;99.90
8220;DHT22;4151;51.110;7.020;2023-05-10T15:15:46;17.10;99.90
8220;DHT22;4151;51.110;7.020;2023-05-10T15:18:11;17.50;99.90
8220;DHT22;4151;51.110;7.020;2023-05-10T15:20:37;17.80;99.90
8220;DHT22;4151;51.110;7.020;2023-05-10T15:23:02;18.00;99.90
8220;DHT22;4151;51.110;7.020;2023-05-10T15:25:28;18.30;99.90
8220;DHT22;4151;51.110;7.020;2023-05-10T15:27:54;18.60;99.90
8220;DHT22;4151;51.110;7.020;2023-05-10T15:30:20;18.40;99.90
8220;DHT22;4151;51.110;7.020;2023-05-10T15:32:46;18.60;99.90
8220;DHT22;4151;51.110;7.020;2023-05-10T15:35:11;18.50;99.90
8220;DHT22;4151;51.110;7.020;2023-05-10T15:37:37;18.70;99.90
8220;DHT22;4151;51.110;7.020;2023-05-10T15:40:03;18.70;99.90
8220;DHT22;4151;51.110;7.020;2023-05-10T15:42:30;18.70;99.90
8220;DHT22;4151;51.110;7.020;2023-05-10T15:44:56;18.80;99.90
8220;DHT22;4151;51.110;7.020;2023-05-10T15:47:21;18.90;99.90
8220;DHT22;4151;51.110;7.020;2023-05-10T15:49:47;18.80;99.90
8220;DHT22;4151;51.110;7.020;2023-05-10T15:52:12;18.50;99.90
8220;DHT22;4151;51.110;7.020;2023-05-10T15:54:38;18.30;99.90
8220;DHT22;4151;51.110;7.020;2023-05-10T15:57:04;18.20;99.90
8220;DHT22;4151;51.110;7.020;2023-05-10T15:59:30;18.30;99.90
8220;DHT22;4151;51.110;7.020;2023-05-10T16:01:56;18.20;99.90
8220;DHT22;4151;51.110;7.020;2023-05-10T16:04:22;18.20;99.90
8220;DHT22;4151;51.110;7.020;2023-05-10T16:06:47;18.30;99.90
8220;DHT22;4151;51.110;7.020;2023-05-10T16:09:13;18.30;99.90
8220;DHT22;4151;51.110;7.020;2023-05-10T16:11:38;18.20;99.90
8220;DHT22;4151;51.110;7.020;2023-05-10T16:14:04;17.90;99.90
8220;DHT22;4151;51.110;7.020;2023-05-10T16:16:30;17.90;99.90
8220;DHT22;4151;51.110;7.020;2023-05-10T16:18:56;17.80;99.90
8220;DHT22;4151;51.110;7.020;2023-05-10T16:21:22;17.50;99.90
8220;DHT22;4151;51.110;7.020;2023-05-10T16:23:48;17.30;99.90
8220;DHT22;4151;51.110;7.020;2023-05-10T16:26:13;17.00;99.90
8220;DHT22;4151;51.110;7.020;2023-05-10T16:28:39;16.70;99.90
8220;DHT22;4151;51.110;7.020;2023-05-10T16:31:05;16.50;99.90
8220;DHT22;4151;51.110;7.020;2023-05-10T16:33:31;16.20;99.90
8220;DHT22;4151;51.110;7.020;2023-05-10T16:35:56;16.00;99.90
8220;DHT22;4151;51.110;7.020;2023-05-10T16:38:22;15.70;99.90
8220;DHT22;4151;51.110;7.020;2023-05-10T16:40:47;15.50;99.90
8220;DHT22;4151;51.110;7.020;2023-05-10T16:43:13;15.30;99.90